Time;durP1;ratioP1;P1;durP2;ratioP2;P2;SDS_P1;SDS_P2;PMS_P1;PMS_P2;Temp;Humidity;BMP_temperature;BMP_pressure;BME280_temperature;BME280_humidity;BME280_pressure;Samples;Min_cycle;Max_cycle;Signal;HPM_P1;HPM_P2
2023/12/22 00:00:47;;;;;;;4.30;0.90;;;5.40;99.90;;;;;;4933685;29;20234;-52
2023/12/22 00:03:14;;;;;;;4.40;1.00;;;5.40;99.90;;;;;;4934573;29;20234;-55
2023/12/22 00:05:39;;;;;;;6.47;1.10;;;5.30;99.90;;;;;;4934419;29;20222;-54
2023/12/22 00:08:05;;;;;;;7.30;1.10;;;5.40;99.90;;;;;;4934443;29;20211;-52
2023/12/22 00:10:31;;;;;;;7.83;1.00;;;5.40;99.90;;;;;;4933535;29;20237;-53
2023/12/22 00:12:56;;;;;;;6.20;1.30;;;5.30;99.90;;;;;;4934094;29;20194;-57
2023/12/22 00:15:22;;;;;;;4.20;0.90;;;5.30;99.90;;;;;;4933255;29;20196;-57
2023/12/22 00:17:47;;;;;;;3.33;0.70;;;5.30;99.90;;;;;;4934111;29;20672;-58
2023/12/22 00:20:14;;;;;;;6.33;0.97;;;5.20;99.90;;;;;;4933398;29;20716;-54
2023/12/22 00:22:40;;;;;;;1.97;0.60;;;5.20;99.90;;;;;;4933884;29;20191;-51
2023/12/22 00:25:07;;;;;;;5.07;0.63;;;5.10;99.90;;;;;;4933854;29;20215;-57
2023/12/22 00:27:33;;;;;;;5.70;0.90;;;5.10;99.90;;;;;;4934129;29;20183;-57
2023/12/22 00:29:59;;;;;;;2.67;0.53;;;5.00;99.90;;;;;;4933140;29;20638;-58
2023/12/22 00:32:24;;;;;;;5.70;0.83;;;4.90;99.90;;;;;;4934043;29;20183;-58
2023/12/22 00:34:50;;;;;;;8.70;0.90;;;4.80;99.90;;;;;;4933705;29;20668;-56
2023/12/22 00:37:16;;;;;;;6.00;0.60;;;4.80;99.90;;;;;;4933861;29;20199;-59
2023/12/22 00:39:41;;;;;;;11.20;0.80;;;4.80;99.90;;;;;;4932910;29;20591;-56
2023/12/22 00:42:07;;;;;;;5.47;0.57;;;4.80;99.90;;;;;;4933746;29;20187;-58
2023/12/22 00:44:32;;;;;;;4.60;0.60;;;4.70;99.90;;;;;;4933617;29;20217;-56
2023/12/22 00:46:58;;;;;;;8.07;0.83;;;4.70;99.90;;;;;;4933694;29;20613;-58
2023/12/22 00:49:23;;;;;;;4.00;0.77;;;4.70;99.90;;;;;;4932813;29;20239;-57
2023/12/22 00:51:49;;;;;;;10.53;1.23;;;4.60;99.90;;;;;;4933661;29;20183;-56
2023/12/22 00:54:15;;;;;;;6.43;0.80;;;4.40;99.90;;;;;;4933611;29;20191;-58
2023/12/22 00:56:40;;;;;;;3.60;0.93;;;4.40;99.90;;;;;;4933463;29;20672;-58
2023/12/22 00:59:06;;;;;;;3.17;0.67;;;4.40;99.90;;;;;;4933062;29;20221;-57
2023/12/22 01:01:31;;;;;;;7.93;0.87;;;4.40;99.90;;;;;;4933402;29;20742;-58
2023/12/22 01:03:57;;;;;;;4.03;0.70;;;4.30;99.90;;;;;;4930857;29;20230;-59
2023/12/22 01:06:22;;;;;;;3.73;0.90;;;4.30;99.90;;;;;;4933300;29;20210;-58
2023/12/22 01:08:51;;;;;;;4.17;0.70;;;4.30;99.90;;;;;;4932474;29;20189;-58
2023/12/22 01:11:17;;;;;;;10.40;1.13;;;4.20;99.90;;;;;;4933264;29;20207;-59
2023/12/22 01:13:43;;;;;;;7.23;0.80;;;4.20;99.90;;;;;;4933236;29;20278;-59
2023/12/22 01:16:09;;;;;;;6.13;1.27;;;4.30;99.90;;;;;;4933483;29;20214;-59
2023/12/22 01:18:34;;;;;;;7.87;0.90;;;4.30;99.90;;;;;;4933063;29;20222;-57
2023/12/22 01:21:00;;;;;;;6.70;0.97;;;4.20;99.90;;;;;;4932807;29;20627;-58
2023/12/22 01:23:25;;;;;;;6.90;0.80;;;4.20;99.90;;;;;;4933030;29;20255;-58
2023/12/22 01:25:51;;;;;;;7.57;1.20;;;4.20;99.90;;;;;;4933165;29;20555;-58
2023/12/22 01:28:17;;;;;;;3.30;0.73;;;4.10;99.90;;;;;;4933255;29;20191;-57
2023/12/22 01:30:42;;;;;;;4.57;0.80;;;4.20;99.90;;;;;;4932347;29;20685;-59
2023/12/22 01:33:08;;;;;;;5.17;1.00;;;4.20;99.90;;;;;;4933048;29;20194;-57
2023/12/22 01:35:34;;;;;;;7.30;1.03;;;4.20;99.90;;;;;;4933344;29;20201;-58
2023/12/22 01:37:59;;;;;;;10.40;1.20;;;4.20;99.90;;;;;;4932792;29;20658;-58
2023/12/22 01:40:25;;;;;;;4.83;0.87;;;4.10;99.90;;;;;;4932447;29;20210;-58
2023/12/22 01:42:50;;;;;;;6.67;0.97;;;4.10;99.90;;;;;;4932863;29;20203;-57
2023/12/22 01:45:16;;;;;;;7.03;1.10;;;4.20;99.90;;;;;;4932974;29;20219;-58
2023/12/22 01:47:42;;;;;;;4.00;0.90;;;4.10;99.90;;;;;;4933056;29;20230;-58
2023/12/22 01:50:10;;;;;;;3.27;0.93;;;4.10;99.90;;;;;;4932285;29;20207;-58
2023/12/22 01:52:40;;;;;;;7.40;0.90;;;4.10;99.90;;;;;;4932991;29;20661;-56
2023/12/22 01:55:06;;;;;;;4.37;0.57;;;4.20;99.90;;;;;;4925822;29;20246;-57
2023/12/22 01:57:34;;;;;;;5.10;0.83;;;4.10;99.90;;;;;;4932998;29;20286;-57
2023/12/22 02:00:01;;;;;;;5.20;0.70;;;4.10;99.90;;;;;;4931804;29;20558;-55
2023/12/22 02:02:27;;;;;;;5.70;0.83;;;4.10;99.90;;;;;;4931839;29;20201;-59
2023/12/22 02:04:53;;;;;;;1.30;0.50;;;4.10;99.90;;;;;;4932733;29;20270;-57
2023/12/22 02:07:20;;;;;;;5.37;0.80;;;4.10;99.90;;;;;;4932691;29;20238;-58
2023/12/22 02:09:45;;;;;;;2.80;0.80;;;4.00;99.90;;;;;;4931770;29;20207;-55
2023/12/22 02:12:11;;;;;;;4.43;0.60;;;4.00;99.90;;;;;;4932728;29;20626;-58
2023/12/22 02:14:37;;;;;;;5.97;0.90;;;4.00;99.90;;;;;;4932543;29;20278;-57
2023/12/22 02:17:14;;;;;;;6.90;0.80;;;4.10;99.90;;;;;;4932673;29;20257;-58
2023/12/22 02:19:43;;;;;;;4.37;0.80;;;4.10;99.90;;;;;;4932355;29;20210;-54
2023/12/22 02:22:11;;;;;;;6.63;0.80;;;4.10;99.90;;;;;;4936411;29;20269;-56
2023/12/22 02:24:37;;;;;;;5.97;0.70;;;4.10;99.90;;;;;;4936160;29;20306;-53
2023/12/22 02:27:33;;;;;;;5.97;1.17;;;4.10;99.90;;;;;;4928581;29;20557;-54
2023/12/22 02:30:32;;;;;;;8.47;1.67;;;4.10;99.90;;;;;;4935434;29;20199;-57
2023/12/22 02:33:04;;;;;;;9.97;1.00;;;4.10;99.90;;;;;;4936197;29;20190;-56
2023/12/22 02:35:33;;;;;;;5.70;0.77;;;4.10;99.90;;;;;;4936026;29;20190;-59
2023/12/22 02:38:00;;;;;;;3.87;0.73;;;4.00;99.90;;;;;;4936080;29;20709;-56
2023/12/22 02:40:27;;;;;;;4.23;0.60;;;4.00;99.90;;;;;;4935262;29;20259;-54
2023/12/22 02:42:53;;;;;;;2.90;0.50;;;3.90;99.90;;;;;;4935836;29;20676;-57
2023/12/22 02:45:19;;;;;;;2.43;0.67;;;3.90;99.90;;;;;;4935968;29;20327;-57
2023/12/22 02:47:46;;;;;;;8.97;0.80;;;3.80;99.90;;;;;;4935864;29;20196;-56
2023/12/22 02:50:14;;;;;;;3.13;0.70;;;3.70;99.90;;;;;;4934935;29;20290;-58
2023/12/22 02:52:40;;;;;;;2.73;0.57;;;3.60;99.90;;;;;;4935655;29;20258;-56
2023/12/22 02:55:06;;;;;;;1.93;0.40;;;3.40;99.90;;;;;;4935738;29;20660;-57
2023/12/22 02:57:31;;;;;;;1.93;0.47;;;3.20;99.90;;;;;;4935694;29;20214;-58
2023/12/22 02:59:57;;;;;;;2.07;0.30;;;3.30;99.90;;;;;;4934709;29;20218;-56
2023/12/22 03:02:23;;;;;;;1.13;0.30;;;3.30;99.90;;;;;;4935306;29;20242;-58
2023/12/22 03:04:49;;;;;;;0.40;0.30;;;3.10;99.90;;;;;;4935310;29;20207;-54
2023/12/22 03:07:15;;;;;;;0.70;0.40;;;3.00;99.90;;;;;;4935737;29;20171;-56
2023/12/22 03:09:42;;;;;;;2.43;0.40;;;3.00;99.90;;;;;;4934479;29;20548;-56
2023/12/22 03:12:08;;;;;;;1.53;0.40;;;2.90;99.90;;;;;;4935432;29;20220;-53
2023/12/22 03:14:34;;;;;;;2.27;0.60;;;2.70;99.90;;;;;;4935350;29;20195;-57
2023/12/22 03:17:04;;;;;;;1.50;0.40;;;2.60;99.90;;;;;;4935361;29;20202;-58
2023/12/22 03:19:30;;;;;;;0.20;0.20;;;2.60;99.90;;;;;;4934685;29;20188;-57
2023/12/22 03:21:59;;;;;;;0.87;0.30;;;2.70;99.90;;;;;;4935022;29;20207;-58
2023/12/22 03:24:25;;;;;;;2.97;0.30;;;2.60;99.90;;;;;;4935050;29;20676;-56
2023/12/22 03:26:51;;;;;;;1.90;0.40;;;2.60;99.90;;;;;;4935090;29;20206;-59
2023/12/22 03:29:17;;;;;;;0.83;0.37;;;2.60;99.90;;;;;;4934538;29;20254;-55
2023/12/22 03:31:44;;;;;;;0.37;0.20;;;2.60;99.90;;;;;;4933691;29;20634;-57
2023/12/22 03:34:09;;;;;;;0.30;0.20;;;2.60;99.90;;;;;;4934930;29;20195;-54
2023/12/22 03:36:35;;;;;;;5.00;0.30;;;2.60;99.90;;;;;;4935055;29;20282;-57
2023/12/22 03:39:01;;;;;;;1.03;0.40;;;2.70;99.90;;;;;;4934158;29;20671;-57
2023/12/22 03:41:26;;;;;;;1.33;0.33;;;2.70;99.90;;;;;;4934853;29;20583;-56
2023/12/22 03:43:52;;;;;;;0.93;0.40;;;2.70;99.90;;;;;;4934885;29;20207;-58
2023/12/22 03:46:18;;;;;;;2.83;0.50;;;2.70;99.90;;;;;;4934761;29;20270;-58
2023/12/22 03:48:44;;;;;;;1.80;0.20;;;2.80;99.90;;;;;;4934148;29;20191;-58
2023/12/22 03:51:11;;;;;;;2.00;0.50;;;2.90;99.90;;;;;;4934496;29;20229;-58
2023/12/22 03:53:37;;;;;;;3.83;0.50;;;3.00;99.90;;;;;;4934778;29;20263;-59
2023/12/22 03:56:03;;;;;;;5.43;0.50;;;3.00;99.90;;;;;;4934473;29;20645;-58
2023/12/22 03:58:29;;;;;;;3.33;0.50;;;3.10;99.90;;;;;;4934231;29;20657;-57
2023/12/22 04:00:55;;;;;;;1.50;0.40;;;3.10;99.90;;;;;;4933690;29;20674;-54
2023/12/22 04:03:21;;;;;;;6.03;0.40;;;3.10;99.90;;;;;;4934546;29;20246;-59
2023/12/22 04:05:47;;;;;;;1.43;0.40;;;3.20;99.90;;;;;;4934190;29;20227;-59
2023/12/22 04:08:12;;;;;;;1.00;0.33;;;3.20;99.90;;;;;;4934329;29;20179;-59
2023/12/22 04:10:38;;;;;;;1.70;0.40;;;3.10;99.90;;;;;;4933784;29;20739;-56
2023/12/22 04:13:03;;;;;;;1.63;0.40;;;3.10;99.90;;;;;;4934261;29;20191;-59
2023/12/22 04:15:29;;;;;;;1.07;0.33;;;3.00;99.90;;;;;;4934344;29;20191;-57
2023/12/22 04:17:54;;;;;;;3.10;0.47;;;2.90;99.90;;;;;;4934285;29;20195;-58
2023/12/22 04:20:20;;;;;;;0.60;0.20;;;2.80;99.90;;;;;;4933327;29;20222;-57
2023/12/22 04:22:46;;;;;;;0.47;0.20;;;2.70;99.90;;;;;;4933901;29;20206;-59
2023/12/22 04:25:11;;;;;;;1.00;0.20;;;2.70;99.90;;;;;;4934056;29;20245;-58
2023/12/22 04:27:37;;;;;;;1.60;0.50;;;2.70;99.90;;;;;;4934258;29;20302;-57
2023/12/22 04:30:02;;;;;;;0.93;0.37;;;2.70;99.90;;;;;;4933068;29;20207;-56
2023/12/22 04:32:28;;;;;;;0.60;0.20;;;2.70;99.90;;;;;;4933998;29;20656;-59
2023/12/22 04:34:54;;;;;;;0.93;0.30;;;2.70;99.90;;;;;;4933700;29;20205;-58
2023/12/22 04:37:19;;;;;;;1.67;0.40;;;2.70;99.90;;;;;;4933973;29;20219;-58
2023/12/22 04:39:45;;;;;;;2.13;0.33;;;2.70;99.90;;;;;;4932870;29;20707;-56
2023/12/22 04:42:10;;;;;;;0.70;0.27;;;2.80;99.90;;;;;;4933495;29;20199;-57
2023/12/22 04:44:36;;;;;;;1.53;0.40;;;2.80;99.90;;;;;;4933709;29;20222;-57
2023/12/22 04:47:02;;;;;;;1.13;0.40;;;2.80;99.90;;;;;;4933815;29;20200;-59
2023/12/22 04:49:27;;;;;;;0.70;0.47;;;2.90;99.90;;;;;;4933076;29;20186;-59
2023/12/22 04:51:53;;;;;;;1.73;0.40;;;2.80;99.90;;;;;;4941471;29;20186;-58
2023/12/22 04:54:18;;;;;;;0.93;0.40;;;2.80;99.90;;;;;;4933698;29;20187;-59
2023/12/22 04:56:44;;;;;;;1.23;0.40;;;2.80;99.90;;;;;;4933702;29;20198;-58
2023/12/22 04:59:09;;;;;;;4.37;0.80;;;2.80;99.90;;;;;;4932876;29;20620;-54
2023/12/22 05:01:35;;;;;;;1.07;0.40;;;2.80;99.90;;;;;;4933297;29;20904;-57
2023/12/22 05:04:01;;;;;;;3.87;0.70;;;2.80;99.90;;;;;;4932108;29;20210;-58
2023/12/22 05:06:29;;;;;;;5.27;1.10;;;3.00;99.90;;;;;;4933275;29;20187;-59
2023/12/22 05:08:54;;;;;;;8.67;1.10;;;3.00;99.90;;;;;;4932686;29;20179;-58
2023/12/22 05:11:20;;;;;;;6.50;1.53;;;3.10;99.90;;;;;;4933061;29;20213;-55
2023/12/22 05:13:45;;;;;;;3.87;1.00;;;3.10;99.90;;;;;;4933139;29;20661;-58
2023/12/22 05:16:11;;;;;;;9.97;1.70;;;3.20;99.90;;;;;;4933175;29;20641;-58
2023/12/22 05:18:37;;;;;;;9.27;2.20;;;3.30;99.90;;;;;;4932644;29;20221;-59
2023/12/22 05:21:03;;;;;;;22.23;3.47;;;3.50;99.90;;;;;;4932931;29;20233;-59
2023/12/22 05:23:28;;;;;;;14.70;3.17;;;3.60;99.90;;;;;;4933284;29;20183;-59
2023/12/22 05:25:54;;;;;;;19.53;3.90;;;3.80;99.90;;;;;;4933150;29;20546;-58
2023/12/22 05:28:20;;;;;;;13.60;3.50;;;4.00;99.90;;;;;;4933383;29;20253;-59
2023/12/22 05:30:45;;;;;;;19.03;3.97;;;4.00;99.90;;;;;;4932358;29;20234;-58
2023/12/22 05:33:12;;;;;;;24.97;3.70;;;4.10;99.90;;;;;;4932539;29;20597;-57
2023/12/22 05:35:37;;;;;;;14.87;3.20;;;4.20;99.90;;;;;;4933042;29;20289;-59
2023/12/22 05:38:03;;;;;;;12.53;2.83;;;4.30;99.90;;;;;;4933022;29;20214;-59
2023/12/22 05:40:32;;;;;;;12.40;2.90;;;4.30;99.90;;;;;;4932667;29;20238;-59
2023/12/22 05:42:57;;;;;;;12.67;2.60;;;4.30;99.90;;;;;;4932984;29;20249;-59
2023/12/22 05:45:24;;;;;;;13.97;2.10;;;4.30;99.90;;;;;;4932985;29;20210;-59
2023/12/22 05:47:50;;;;;;;9.77;2.20;;;4.30;99.90;;;;;;4932816;29;20215;-58
2023/12/22 05:50:16;;;;;;;11.70;1.97;;;4.30;99.90;;;;;;4932228;29;20673;-56
2023/12/22 05:52:43;;;;;;;9.20;1.70;;;4.30;99.90;;;;;;4933139;29;20183;-59
2023/12/22 05:55:09;;;;;;;9.63;1.60;;;4.40;99.90;;;;;;4934774;29;20187;-58
2023/12/22 05:57:35;;;;;;;10.80;1.73;;;4.40;99.90;;;;;;4936955;29;20194;-57
2023/12/22 06:00:00;;;;;;;14.37;1.50;;;4.40;99.90;;;;;;4936274;29;20222;-58
2023/12/22 06:02:26;;;;;;;8.90;1.47;;;4.40;99.90;;;;;;4937104;29;20183;-59
2023/12/22 06:04:51;;;;;;;6.57;1.70;;;4.50;99.90;;;;;;4936369;29;20215;-58
2023/12/22 06:07:19;;;;;;;6.13;1.30;;;4.60;99.90;;;;;;4936789;29;20183;-59
2023/12/22 06:09:44;;;;;;;7.63;1.50;;;4.60;99.90;;;;;;4936109;29;20238;-59
2023/12/22 06:12:10;;;;;;;4.20;1.33;;;4.60;99.90;;;;;;4936745;29;20303;-59
2023/12/22 06:14:36;;;;;;;8.23;2.17;;;4.70;99.90;;;;;;4936734;29;20226;-59
2023/12/22 06:17:02;;;;;;;6.47;1.73;;;4.70;99.90;;;;;;4936621;29;20695;-56
2023/12/22 06:19:30;;;;;;;6.17;1.40;;;4.70;99.90;;;;;;4935849;29;20219;-56
2023/12/22 06:21:57;;;;;;;7.53;1.77;;;4.70;99.90;;;;;;4936802;29;20195;-57
2023/12/22 06:24:23;;;;;;;9.93;1.73;;;4.70;99.90;;;;;;4936674;29;20691;-57
2023/12/22 06:26:48;;;;;;;5.90;1.50;;;4.70;99.90;;;;;;4936827;29;20187;-57
2023/12/22 06:29:14;;;;;;;6.03;1.40;;;4.70;99.90;;;;;;4935909;29;20194;-56
2023/12/22 06:31:39;;;;;;;8.33;1.47;;;4.70;99.90;;;;;;4936041;29;20235;-57
2023/12/22 06:34:05;;;;;;;3.57;0.93;;;4.70;99.90;;;;;;4935794;29;20195;-57
2023/12/22 06:36:31;;;;;;;7.20;1.10;;;4.70;99.90;;;;;;4935938;29;20632;-58
2023/12/22 06:38:57;;;;;;;5.07;1.20;;;4.70;99.90;;;;;;4934851;29;20191;-58
2023/12/22 06:41:24;;;;;;;4.90;0.87;;;4.60;99.90;;;;;;4935576;29;20199;-54
2023/12/22 06:43:50;;;;;;;9.40;1.13;;;4.60;99.90;;;;;;4935212;29;20183;-58
2023/12/22 06:46:25;;;;;;;4.67;1.13;;;4.70;99.90;;;;;;4935682;29;20183;-55
2023/12/22 06:48:51;;;;;;;5.67;1.47;;;4.60;99.90;;;;;;4935532;29;20652;-53
2023/12/22 06:51:22;;;;;;;5.20;1.17;;;4.60;99.90;;;;;;4935895;29;20214;-58
2023/12/22 06:53:48;;;;;;;7.80;1.43;;;4.60;99.90;;;;;;4935527;29;20187;-59
2023/12/22 06:56:18;;;;;;;7.23;1.10;;;4.60;99.90;;;;;;4935744;29;20190;-57
2023/12/22 06:58:46;;;;;;;6.93;1.37;;;4.60;99.90;;;;;;4935226;29;20563;-57
2023/12/22 07:01:12;;;;;;;6.80;1.50;;;4.60;99.90;;;;;;4935490;29;20616;-57
2023/12/22 07:03:38;;;;;;;6.80;1.10;;;4.60;99.90;;;;;;4935714;29;20187;-57
2023/12/22 07:06:04;;;;;;;3.60;1.20;;;4.60;99.90;;;;;;4934940;29;20175;-56
2023/12/22 07:08:29;;;;;;;3.97;1.40;;;4.50;99.90;;;;;;4935377;29;20267;-58
2023/12/22 07:10:55;;;;;;;5.33;1.30;;;4.50;99.90;;;;;;4935038;29;20211;-58
2023/12/22 07:13:20;;;;;;;7.17;1.20;;;4.50;99.90;;;;;;4935432;29;20197;-57
2023/12/22 07:15:46;;;;;;;4.27;0.87;;;4.50;99.90;;;;;;4935309;29;20266;-57
2023/12/22 07:18:11;;;;;;;7.07;1.60;;;4.50;99.90;;;;;;4935458;29;20187;-58
2023/12/22 07:20:37;;;;;;;5.90;1.50;;;4.50;99.90;;;;;;4934893;29;20211;-58
2023/12/22 07:23:03;;;;;;;7.10;1.37;;;4.50;99.90;;;;;;4935433;29;20187;-57
2023/12/22 07:25:28;;;;;;;6.10;1.60;;;4.40;99.90;;;;;;4935243;29;20278;-57
2023/12/22 07:27:54;;;;;;;10.07;2.43;;;4.40;99.90;;;;;;4935140;29;20274;-56
2023/12/22 07:30:20;;;;;;;13.27;1.87;;;4.40;99.90;;;;;;4934603;29;20767;-57
2023/12/22 07:32:48;;;;;;;7.63;1.77;;;4.50;99.90;;;;;;4934553;29;20278;-58
2023/12/22 07:35:14;;;;;;;12.07;2.30;;;4.50;99.90;;;;;;4934313;29;20187;-58
2023/12/22 07:37:40;;;;;;;9.53;1.93;;;4.50;99.90;;;;;;4934614;29;20676;-56
2023/12/22 07:40:06;;;;;;;14.23;2.30;;;4.60;99.90;;;;;;4933823;29;20210;-57
2023/12/22 07:42:31;;;;;;;11.30;2.70;;;4.60;99.90;;;;;;4934477;29;20179;-57
2023/12/22 07:44:57;;;;;;;11.00;2.20;;;4.70;99.90;;;;;;4934305;29;20277;-58
2023/12/22 07:47:23;;;;;;;9.27;2.03;;;4.70;99.90;;;;;;4934288;29;20270;-55
2023/12/22 07:49:49;;;;;;;11.23;2.37;;;4.70;99.90;;;;;;4933498;29;20672;-56
2023/12/22 07:52:15;;;;;;;9.13;1.93;;;4.80;99.90;;;;;;4934076;29;20727;-55
2023/12/22 07:54:40;;;;;;;9.93;2.10;;;4.80;99.90;;;;;;4934288;29;20199;-58
2023/12/22 07:57:06;;;;;;;10.67;2.33;;;4.90;99.90;;;;;;4926239;29;20254;-58
2023/12/22 07:59:32;;;;;;;10.83;1.97;;;4.90;99.90;;;;;;4933372;29;20199;-57
2023/12/22 08:01:57;;;;;;;8.97;2.50;;;4.90;99.90;;;;;;4933456;29;20201;-53
2023/12/22 08:04:23;;;;;;;13.00;2.37;;;5.00;99.90;;;;;;4933934;29;20258;-58
2023/12/22 08:06:48;;;;;;;18.30;2.43;;;5.00;99.90;;;;;;4933858;29;20558;-59
2023/12/22 08:09:14;;;;;;;16.00;3.43;;;5.10;99.90;;;;;;4933104;29;20715;-58
2023/12/22 08:11:39;;;;;;;10.30;2.60;;;5.20;99.90;;;;;;4932670;29;20746;-57
2023/12/22 08:14:06;;;;;;;21.70;5.90;;;5.30;99.90;;;;;;4933674;29;20576;-58
2023/12/22 08:16:32;;;;;;;16.43;3.77;;;5.30;99.90;;;;;;4933795;29;20187;-58
2023/12/22 08:18:58;;;;;;;13.77;3.20;;;5.40;99.90;;;;;;4932675;29;20557;-54
2023/12/22 08:21:23;;;;;;;13.83;3.70;;;5.40;99.90;;;;;;4933564;29;20213;-57
2023/12/22 08:23:49;;;;;;;19.40;3.50;;;5.50;99.90;;;;;;4933275;29;20222;-58
2023/12/22 08:26:17;;;;;;;15.20;2.77;;;5.50;99.90;;;;;;4933653;29;20660;-58
2023/12/22 08:28:42;;;;;;;19.27;3.80;;;5.60;99.90;;;;;;4933072;29;20510;-57
2023/12/22 08:31:08;;;;;;;18.30;3.17;;;5.70;99.90;;;;;;4933575;29;20207;-56
2023/12/22 08:33:33;;;;;;;12.80;2.70;;;5.80;99.90;;;;;;4932483;29;20183;-57
2023/12/22 08:35:59;;;;;;;15.87;3.60;;;5.80;99.90;;;;;;4933426;29;20195;-58
2023/12/22 08:38:26;;;;;;;11.20;2.87;;;5.80;99.90;;;;;;4933534;29;20191;-57
2023/12/22 08:40:52;;;;;;;21.57;3.10;;;5.80;99.90;;;;;;4932577;29;20211;-54
2023/12/22 08:43:17;;;;;;;13.40;2.13;;;5.80;99.90;;;;;;4933313;29;20195;-57
2023/12/22 08:45:43;;;;;;;15.87;2.60;;;5.90;99.90;;;;;;4933052;29;20219;-58
2023/12/22 08:48:08;;;;;;;11.57;2.90;;;5.90;99.90;;;;;;4933353;29;20215;-57
2023/12/22 08:50:35;;;;;;;12.07;2.50;;;5.90;99.90;;;;;;4932389;29;20199;-56
2023/12/22 08:53:00;;;;;;;7.57;2.00;;;6.00;99.90;;;;;;4932896;29;20195;-57
2023/12/22 08:55:26;;;;;;;11.80;2.03;;;6.10;99.90;;;;;;4933029;29;20198;-57
2023/12/22 08:57:51;;;;;;;9.60;2.07;;;6.10;99.90;;;;;;4932545;29;20205;-58
2023/12/22 09:00:17;;;;;;;10.63;1.70;;;6.00;99.90;;;;;;4932038;28;20321;-57
2023/12/22 09:02:42;;;;;;;11.27;2.27;;;6.00;99.90;;;;;;4933031;29;20195;-58
2023/12/22 09:05:08;;;;;;;10.73;1.77;;;6.10;99.90;;;;;;4932975;29;20222;-58
2023/12/22 09:07:33;;;;;;;10.43;1.80;;;6.10;99.90;;;;;;4932034;29;20190;-57
2023/12/22 09:09:59;;;;;;;8.37;1.60;;;6.00;99.90;;;;;;4932165;29;20214;-58
2023/12/22 09:12:25;;;;;;;8.70;2.03;;;6.10;99.90;;;;;;4932670;29;20277;-57
2023/12/22 09:14:50;;;;;;;7.57;1.87;;;6.10;99.90;;;;;;4932413;29;20195;-58
2023/12/22 09:17:16;;;;;;;7.33;1.43;;;6.00;99.90;;;;;;4932668;29;20191;-56
2023/12/22 09:19:42;;;;;;;4.37;1.60;;;6.10;99.90;;;;;;4931934;29;20227;-57
2023/12/22 09:22:08;;;;;;;10.00;1.83;;;6.10;99.90;;;;;;4925047;29;20653;-57
2023/12/22 09:24:34;;;;;;;6.50;2.00;;;6.10;99.90;;;;;;4932649;29;20317;-57
2023/12/22 09:27:02;;;;;;;9.03;2.20;;;6.20;99.90;;;;;;4932399;29;20243;-58
2023/12/22 09:29:36;;;;;;;14.07;2.47;;;6.30;99.90;;;;;;4931927;29;20222;-58
2023/12/22 09:32:01;;;;;;;10.53;2.60;;;6.30;99.90;;;;;;4932531;29;20183;-56
2023/12/22 09:34:30;;;;;;;13.23;3.23;;;6.40;99.90;;;;;;4932487;29;20645;-58
2023/12/22 09:36:56;;;;;;;8.93;2.77;;;6.50;99.90;;;;;;4932334;29;20187;-56
2023/12/22 09:39:21;;;;;;;10.30;2.30;;;6.60;99.90;;;;;;4932354;29;20175;-57
2023/12/22 09:41:51;;;;;;;14.33;3.50;;;6.60;99.90;;;;;;4932789;29;20242;-57
2023/12/22 09:44:20;;;;;;;14.03;3.93;;;6.70;99.90;;;;;;4932097;29;20568;-56
2023/12/22 09:46:49;;;;;;;13.30;3.20;;;6.70;99.90;;;;;;4932407;29;20211;-58
2023/12/22 09:49:20;;;;;;;13.67;3.50;;;6.80;99.90;;;;;;4931876;29;20183;-59
2023/12/22 09:51:46;;;;;;;20.50;3.50;;;6.90;99.90;;;;;;4932495;29;20663;-58
2023/12/22 09:54:13;;;;;;;22.03;3.33;;;6.90;99.90;;;;;;4931979;29;20182;-58
2023/12/22 09:56:42;;;;;;;18.27;4.17;;;6.80;99.90;;;;;;4932600;29;20194;-56
2023/12/22 09:59:15;;;;;;;23.63;3.97;;;6.80;99.90;;;;;;4932838;29;20215;-53
2023/12/22 10:01:44;;;;;;;20.03;4.77;;;6.80;99.90;;;;;;4933029;29;20582;-58
2023/12/22 10:04:10;;;;;;;26.30;5.10;;;6.90;99.90;;;;;;4925197;29;20685;-58
2023/12/22 10:06:36;;;;;;;13.00;4.07;;;6.90;99.90;;;;;;4932124;29;20189;-58
2023/12/22 10:09:05;;;;;;;21.17;3.87;;;6.90;99.90;;;;;;4931608;29;20180;-53
2023/12/22 10:11:32;;;;;;;19.53;4.20;;;6.90;99.90;;;;;;4932325;29;20199;-58
2023/12/22 10:14:00;;;;;;;19.20;4.03;;;6.90;99.90;;;;;;4932001;29;20199;-58
2023/12/22 10:16:25;;;;;;;25.83;4.30;;;7.00;99.90;;;;;;4932258;29;20735;-57
2023/12/22 10:18:52;;;;;;;21.80;4.37;;;7.00;99.90;;;;;;4931290;29;20242;-58
2023/12/22 10:21:17;;;;;;;19.80;4.60;;;7.00;99.90;;;;;;4932204;29;20540;-57
2023/12/22 10:23:43;;;;;;;20.50;4.40;;;6.90;99.90;;;;;;4932211;29;20186;-58
2023/12/22 10:26:11;;;;;;;18.47;4.73;;;6.90;99.90;;;;;;4932209;28;20218;-58
2023/12/22 10:28:37;;;;;;;21.57;4.63;;;6.90;99.90;;;;;;4931664;29;20298;-58
2023/12/22 10:31:06;;;;;;;16.43;3.70;;;6.90;99.90;;;;;;4931845;29;20290;-58
2023/12/22 10:33:32;;;;;;;14.73;4.20;;;7.00;99.90;;;;;;4931985;29;20537;-58
2023/12/22 10:35:59;;;;;;;16.33;3.60;;;7.00;99.90;;;;;;4931787;29;20191;-55
2023/12/22 10:38:25;;;;;;;21.73;3.83;;;7.10;99.90;;;;;;4931974;29;20586;-57
2023/12/22 10:40:52;;;;;;;17.33;4.00;;;7.10;99.90;;;;;;4932305;29;20290;-58
2023/12/22 10:43:17;;;;;;;17.80;3.80;;;7.10;99.90;;;;;;4935390;29;20614;-58
2023/12/22 10:45:43;;;;;;;17.77;3.23;;;7.10;99.90;;;;;;4935458;29;20290;-58
2023/12/22 10:48:10;;;;;;;19.33;3.50;;;7.20;99.90;;;;;;4935644;29;20323;-57
2023/12/22 10:50:35;;;;;;;17.83;3.97;;;7.20;99.90;;;;;;4934958;29;20282;-56
2023/12/22 10:53:01;;;;;;;9.97;3.30;;;7.20;99.90;;;;;;4935046;29;20521;-57
2023/12/22 10:55:27;;;;;;;18.43;4.23;;;7.20;99.90;;;;;;4934402;29;20190;-53
2023/12/22 10:57:53;;;;;;;14.43;4.13;;;7.20;99.90;;;;;;4933575;29;20195;-58
2023/12/22 11:00:20;;;;;;;16.27;3.73;;;7.20;99.90;;;;;;4934672;29;20237;-55
2023/12/22 11:02:48;;;;;;;19.27;3.80;;;7.20;99.90;;;;;;4935159;29;20183;-57
2023/12/22 11:05:17;;;;;;;16.23;2.83;;;7.30;99.90;;;;;;4934922;29;20581;-55
2023/12/22 11:07:49;;;;;;;12.67;2.83;;;7.40;99.90;;;;;;4934976;29;20555;-57
2023/12/22 11:10:19;;;;;;;14.50;3.10;;;7.50;99.90;;;;;;4934437;29;20195;-57
2023/12/22 11:12:47;;;;;;;15.37;3.10;;;7.50;99.90;;;;;;4934632;29;20214;-57
2023/12/22 11:15:15;;;;;;;12.30;3.47;;;7.50;99.90;;;;;;4935013;29;20191;-57
2023/12/22 11:17:42;;;;;;;8.60;2.63;;;7.50;99.90;;;;;;4934614;29;20187;-55
2023/12/22 11:20:12;;;;;;;11.60;2.30;;;7.60;99.90;;;;;;4934239;29;20234;-57
2023/12/22 11:22:39;;;;;;;10.27;2.73;;;7.60;99.90;;;;;;4934736;29;20217;-55
2023/12/22 11:25:08;;;;;;;5.00;2.00;;;7.50;99.90;;;;;;4934433;29;20211;-55
2023/12/22 11:27:34;;;;;;;11.37;2.60;;;7.50;99.90;;;;;;4949251;28;20190;-54
2023/12/22 11:30:01;;;;;;;5.13;2.00;;;7.60;99.90;;;;;;4933943;29;20214;-57
2023/12/22 11:32:28;;;;;;;9.70;2.40;;;7.60;99.90;;;;;;4934642;29;20593;-57
2023/12/22 11:34:56;;;;;;;8.23;2.27;;;7.50;99.90;;;;;;4934168;29;20625;-56
2023/12/22 11:37:22;;;;;;;8.50;2.27;;;7.50;99.90;;;;;;4934473;29;20179;-57
2023/12/22 11:39:48;;;;;;;7.40;2.30;;;7.50;99.90;;;;;;4933514;29;20265;-59
2023/12/22 11:42:23;;;;;;;7.33;2.10;;;7.50;99.90;;;;;;4934543;29;20183;-56
2023/12/22 11:44:48;;;;;;;6.33;2.03;;;7.40;99.90;;;;;;4934157;29;20277;-53
2023/12/22 11:47:14;;;;;;;7.07;2.00;;;7.40;99.90;;;;;;4934258;29;20815;-57
2023/12/22 11:49:41;;;;;;;8.27;2.03;;;7.50;99.90;;;;;;4940225;29;20178;-58
2023/12/22 11:52:17;;;;;;;3.00;1.57;;;7.50;99.90;;;;;;4933368;28;20186;-56
2023/12/22 11:54:54;;;;;;;7.23;1.50;;;7.60;99.90;;;;;;4933956;29;20198;-55
2023/12/22 11:57:37;;;;;;;7.03;1.37;;;7.60;99.90;;;;;;4927844;29;20660;-54
2023/12/22 12:00:20;;;;;;;6.33;1.67;;;7.60;99.90;;;;;;4933345;29;20289;-54
2023/12/22 12:02:55;;;;;;;3.60;1.40;;;7.70;99.90;;;;;;4933836;29;20533;-56
2023/12/22 12:05:20;;;;;;;3.83;1.30;;;7.70;99.90;;;;;;4933686;29;20354;-56
2023/12/22 12:07:50;;;;;;;2.87;1.20;;;7.70;99.90;;;;;;4934135;29;20270;-55
2023/12/22 12:10:34;;;;;;;1.80;0.90;;;7.80;99.90;;;;;;4933107;29;20202;-54
2023/12/22 12:13:10;;;;;;;3.17;1.10;;;7.80;99.90;;;;;;4933621;29;20180;-57
2023/12/22 12:15:38;;;;;;;2.73;1.23;;;7.90;99.90;;;;;;4933866;29;20563;-54
2023/12/22 12:18:05;;;;;;;2.97;1.40;;;8.00;99.90;;;;;;4933600;29;20302;-55
2023/12/22 12:20:32;;;;;;;4.73;1.93;;;8.00;99.90;;;;;;4933045;29;20365;-58
2023/12/22 12:22:58;;;;;;;3.53;1.77;;;8.00;99.90;;;;;;4933510;29;20215;-55
2023/12/22 12:25:27;;;;;;;8.23;1.77;;;8.10;99.90;;;;;;4933602;29;20234;-56
2023/12/22 12:28:06;;;;;;;3.90;1.23;;;8.00;99.90;;;;;;4933493;29;20171;-52
2023/12/22 12:30:33;;;;;;;4.50;1.20;;;7.90;99.90;;;;;;4933118;29;20202;-57
2023/12/22 12:33:05;;;;;;;2.20;1.43;;;7.90;99.90;;;;;;4933224;29;20179;-56
2023/12/22 12:35:32;;;;;;;3.13;1.23;;;7.90;99.90;;;;;;4933451;29;20238;-56
2023/12/22 12:37:59;;;;;;;4.37;2.10;;;7.80;99.90;;;;;;4933116;29;20195;-58
2023/12/22 12:40:29;;;;;;;3.20;1.97;;;7.80;99.90;;;;;;4932837;29;20210;-53
2023/12/22 12:42:56;;;;;;;4.50;2.33;;;7.80;99.90;;;;;;4933069;29;20638;-54
2023/12/22 12:45:25;;;;;;;5.40;1.83;;;7.90;99.90;;;;;;4933328;29;20219;-57
2023/12/22 12:48:01;;;;;;;5.50;1.70;;;7.90;99.90;;;;;;4933211;29;20190;-52
2023/12/22 12:50:28;;;;;;;6.53;1.40;;;8.00;99.90;;;;;;4932262;29;20562;-56